Time;durP1;ratioP1;P1;durP2;ratioP2;P2;SDS_P1;SDS_P2;PMS_P1;PMS_P2;Temp;Humidity;BMP_temperature;BMP_pressure;BME280_temperature;BME280_humidity;BME280_pressure;Samples;Min_cycle;Max_cycle;Signal;HPM_P1;HPM_P2
2024/03/14 00:00:43;;;;;;;11.70;6.60;;;;;;;2.75;100.00;100915.17;106306;1256;61160;-83
2024/03/14 00:03:17;;;;;;;15.50;7.10;;;;;;;2.76;100.00;100919.98;106402;1251;61446;-87
2024/03/14 00:05:45;;;;;;;16.20;8.00;;;;;;;2.80;100.00;100919.09;106392;1257;74629;-88
2024/03/14 00:08:19;;;;;;;13.00;6.90;;;;;;;2.80;100.00;100920.71;106476;1253;68347;-85
2024/03/14 00:10:59;;;;;;;15.20;7.80;;;;;;;2.78;100.00;100919.51;106571;1252;72701;-82
2024/03/14 00:13:33;;;;;;;11.90;6.90;;;;;;;2.83;100.00;100925.05;106410;1258;61247;-86
2024/03/14 00:16:10;;;;;;;10.70;6.60;;;;;;;2.85;100.00;100918.27;106817;1252;61180;-82
2024/03/14 00:18:44;;;;;;;13.30;6.30;;;;;;;2.84;100.00;100912.25;106273;1253;74595;-82
2024/03/14 00:21:20;;;;;;;13.80;6.80;;;;;;;2.84;100.00;100913.99;106499;1250;67360;-82
2024/03/14 00:23:57;;;;;;;11.10;6.90;;;;;;;2.85;100.00;100907.59;106448;1257;72651;-82
2024/03/14 00:26:32;;;;;;;12.30;6.40;;;;;;;2.83;100.00;100905.33;106415;1250;61279;-82
2024/03/14 00:29:06;;;;;;;16.90;6.70;;;;;;;2.84;100.00;100905.36;106450;1251;61385;-82
2024/03/14 00:31:43;;;;;;;12.60;7.00;;;;;;;2.86;100.00;100902.95;106064;1250;74685;-87
2024/03/14 00:34:17;;;;;;;12.30;6.10;;;;;;;2.85;100.00;100903.23;106148;1251;68620;-82
2024/03/14 00:36:52;;;;;;;12.10;6.30;;;;;;;2.88;100.00;100903.17;106632;1253;72660;-82
2024/03/14 00:39:21;;;;;;;18.90;9.00;;;;;;;2.93;100.00;100905.46;106427;1256;61241;-82
2024/03/14 00:42:03;;;;;;;14.00;6.80;;;;;;;2.96;100.00;100907.23;106404;1250;61267;-82
2024/03/14 00:44:32;;;;;;;11.40;6.70;;;;;;;2.94;100.00;100906.09;106380;1251;73463;-82
2024/03/14 00:47:07;;;;;;;13.70;6.70;;;;;;;2.95;100.00;100909.40;106423;1253;68403;-81
2024/03/14 00:49:41;;;;;;;13.70;7.00;;;;;;;3.01;100.00;100906.09;107348;1253;70609;-82
2024/03/14 00:52:17;;;;;;;9.50;5.70;;;;;;;3.03;100.00;100905.23;106328;1256;60009;-81
2024/03/14 00:54:51;;;;;;;10.40;6.30;;;;;;;3.00;100.00;100906.92;106468;1256;61157;-81
2024/03/14 00:57:26;;;;;;;12.80;6.50;;;;;;;3.03;100.00;100904.15;106415;1251;74657;-82
2024/03/14 01:00:00;;;;;;;12.10;7.10;;;;;;;3.04;100.00;100903.90;105930;1253;67097;-81
2024/03/14 01:02:35;;;;;;;10.70;5.80;;;;;;;3.05;100.00;100901.24;106306;1253;71422;-82
2024/03/14 01:05:11;;;;;;;11.60;6.20;;;;;;;3.05;100.00;100901.70;106326;1256;61125;-82
2024/03/14 01:07:47;;;;;;;16.50;6.90;;;;;;;3.00;100.00;100898.04;106689;1250;61224;-82
2024/03/14 01:10:21;;;;;;;12.00;6.70;;;;;;;2.97;100.00;100897.48;106337;1251;74989;-82
2024/03/14 01:12:55;;;;;;;11.80;6.20;;;;;;;2.91;100.00;100896.47;106384;1252;68733;-88
2024/03/14 01:15:30;;;;;;;13.40;6.70;;;;;;;2.94;100.00;100896.62;106266;1258;72667;-87
2024/03/14 01:17:58;;;;;;;11.90;6.70;;;;;;;2.90;100.00;100896.80;106310;1252;61283;-87
2024/03/14 01:20:32;;;;;;;12.10;6.00;;;;;;;2.88;100.00;100893.29;106437;1250;60355;-81
2024/03/14 01:23:07;;;;;;;12.30;5.90;;;;;;;2.88;100.00;100891.08;106790;1251;73353;-87
2024/03/14 01:25:41;;;;;;;10.60;5.80;;;;;;;2.87;100.00;100892.42;106458;1257;68642;-81
2024/03/14 01:28:15;;;;;;;13.30;6.00;;;;;;;2.86;100.00;100895.34;106547;1256;75518;-86
2024/03/14 01:30:49;;;;;;;11.60;6.30;;;;;;;2.84;100.00;100896.72;106367;1257;61267;-87
2024/03/14 01:33:23;;;;;;;10.80;5.50;;;;;;;2.84;100.00;100900.95;106314;1250;61176;-82
2024/03/14 01:36:00;;;;;;;10.90;6.00;;;;;;;2.81;100.00;100909.23;106396;1251;74754;-81
2024/03/14 01:38:34;;;;;;;10.60;5.70;;;;;;;2.76;100.00;100908.14;106806;1251;68378;-82
2024/03/14 01:41:21;;;;;;;12.30;6.30;;;;;;;2.71;100.00;100918.92;106371;1250;232557;-87
2024/03/14 01:44:13;;;;;;;12.40;6.30;;;;;;;2.66;100.00;100922.73;106409;1254;61394;-82
2024/03/14 01:46:48;;;;;;;12.10;6.50;;;;;;;2.53;100.00;100915.49;106413;1250;61369;-89
2024/03/14 01:49:22;;;;;;;14.60;7.00;;;;;;;2.36;100.00;100915.89;106543;1251;74656;-88
2024/03/14 01:51:55;;;;;;;15.20;7.30;;;;;;;2.19;100.00;100913.92;106441;1257;68264;-88
2024/03/14 01:54:29;;;;;;;12.50;7.50;;;;;;;2.05;100.00;100910.40;107172;1253;71310;-88
2024/03/14 01:57:03;;;;;;;14.00;7.00;;;;;;;1.97;100.00;100914.32;106505;1256;61259;-88
2024/03/14 01:59:37;;;;;;;13.40;8.10;;;;;;;1.87;100.00;100911.73;106588;1253;61251;-88
2024/03/14 02:02:11;;;;;;;13.80;7.20;;;;;;;1.77;100.00;100913.83;106598;1257;74615;-88
2024/03/14 02:04:56;;;;;;;14.70;8.20;;;;;;;1.72;100.00;100907.44;106466;1256;67147;-82
2024/03/14 02:07:29;;;;;;;14.90;8.00;;;;;;;1.69;100.00;100905.67;106680;1251;72626;-83
2024/03/14 02:10:04;;;;;;;16.00;8.60;;;;;;;1.67;100.00;100908.48;106448;1251;61305;-88
2024/03/14 02:12:33;;;;;;;11.70;7.70;;;;;;;1.64;100.00;100910.11;106512;1256;61181;-88
2024/03/14 02:15:15;;;;;;;12.00;7.20;;;;;;;1.61;100.00;100907.34;106534;1251;74526;-88
2024/03/14 02:17:44;;;;;;;13.70;7.80;;;;;;;1.56;100.00;100907.63;106576;1256;67927;-82
2024/03/14 02:20:20;;;;;;;18.10;7.90;;;;;;;1.53;100.00;100909.21;106646;1253;71967;-82
2024/03/14 02:22:55;;;;;;;12.50;7.20;;;;;;;1.53;100.00;100907.42;106464;1253;61294;-82
2024/03/14 02:25:25;;;;;;;15.40;7.50;;;;;;;1.52;100.00;100908.10;106445;1251;61110;-82
2024/03/14 02:28:00;;;;;;;12.60;7.50;;;;;;;1.50;100.00;100906.36;106628;1250;74676;-82
2024/03/14 02:30:34;;;;;;;13.00;6.70;;;;;;;1.48;100.00;100911.38;106394;1257;66318;-82
2024/03/14 02:33:14;;;;;;;16.70;7.10;;;;;;;1.47;100.00;100908.92;106347;1256;71926;-81
2024/03/14 02:35:48;;;;;;;13.90;7.80;;;;;;;1.44;100.00;100910.67;106789;1256;61299;-82
2024/03/14 02:38:22;;;;;;;12.80;8.00;;;;;;;1.41;100.00;100910.62;106572;1253;61241;-81
2024/03/14 02:40:56;;;;;;;14.90;8.60;;;;;;;1.40;100.00;100909.71;106699;1251;73458;-81
2024/03/14 02:43:30;;;;;;;11.90;7.40;;;;;;;1.40;100.00;100909.17;106525;1251;68363;-82
2024/03/14 02:46:04;;;;;;;12.40;7.00;;;;;;;1.39;100.00;100906.73;106444;1251;72301;-81
2024/03/14 02:48:38;;;;;;;13.80;7.30;;;;;;;1.37;100.00;100906.45;106459;1250;61268;-82
2024/03/14 02:51:06;;;;;;;13.40;7.10;;;;;;;1.35;100.00;100908.14;106669;1250;60009;-82
2024/03/14 02:53:39;;;;;;;13.00;7.20;;;;;;;1.33;100.00;100909.05;106595;1256;73773;-82
2024/03/14 02:56:13;;;;;;;12.40;7.50;;;;;;;1.34;100.00;100901.60;106526;1251;68668;-82
2024/03/14 02:58:47;;;;;;;13.70;8.40;;;;;;;1.34;100.00;100904.75;106427;1253;72664;-81
2024/03/14 03:01:22;;;;;;;13.50;7.70;;;;;;;1.36;100.00;100908.80;106392;1253;61259;-82
2024/03/14 03:03:57;;;;;;;13.80;8.20;;;;;;;1.36;100.00;100905.36;106415;1257;61234;-82
2024/03/14 03:06:33;;;;;;;15.10;8.30;;;;;;;1.36;100.00;100903.34;106593;1256;74637;-82
2024/03/14 03:09:07;;;;;;;12.50;8.00;;;;;;;1.35;100.00;100908.77;106730;1253;68370;-82
2024/03/14 03:11:42;;;;;;;13.80;9.20;;;;;;;1.35;100.00;100905.53;106467;1251;71460;-81
2024/03/14 03:14:16;;;;;;;12.80;7.90;;;;;;;1.33;100.00;100909.05;106445;1252;61170;-87
2024/03/14 03:16:50;;;;;;;11.90;7.60;;;;;;;1.32;100.00;100909.72;106431;1250;62019;-88
2024/03/14 03:19:18;;;;;;;14.60;8.00;;;;;;;1.29;100.00;100909.52;106522;1253;74684;-82
2024/03/14 03:21:58;;;;;;;15.10;8.00;;;;;;;1.24;100.00;100913.15;106552;1253;67147;-82
2024/03/14 03:24:25;;;;;;;14.30;8.10;;;;;;;1.23;100.00;100915.17;107036;1251;73136;-83
2024/03/14 03:27:13;;;;;;;15.10;7.40;;;;;;;1.23;100.00;100917.17;106587;1253;61441;-82
2024/03/14 03:29:41;;;;;;;10.80;7.50;;;;;;;1.24;100.00;100924.58;106431;1253;61552;-87
2024/03/14 03:32:16;;;;;;;12.40;6.90;;;;;;;1.25;100.00;100920.60;106544;1251;73544;-87
2024/03/14 03:34:50;;;;;;;11.80;7.60;;;;;;;1.31;100.00;100924.54;106627;1256;67254;-87
2024/03/14 03:37:24;;;;;;;15.70;7.80;;;;;;;1.41;100.00;100923.77;106612;1253;73158;-82
2024/03/14 03:39:58;;;;;;;14.40;8.10;;;;;;;1.37;100.00;100924.13;106850;1253;61301;-87
2024/03/14 03:42:32;;;;;;;13.50;8.80;;;;;;;1.35;100.00;100924.21;106580;1250;60106;-88
2024/03/14 03:45:09;;;;;;;14.10;8.50;;;;;;;1.30;100.00;100925.20;106345;1257;74620;-82
2024/03/14 03:47:43;;;;;;;14.10;7.90;;;;;;;1.31;100.00;100926.48;106516;1251;67261;-82
2024/03/14 03:50:17;;;;;;;13.70;8.90;;;;;;;1.32;100.00;100927.48;106201;1253;70387;-87
2024/03/14 03:52:52;;;;;;;16.50;8.60;;;;;;;1.36;100.00;100928.73;106370;1250;61404;-85
2024/03/14 03:55:27;;;;;;;14.90;9.10;;;;;;;1.38;100.00;100924.71;106285;1253;61165;-88
2024/03/14 03:57:56;;;;;;;17.40;9.10;;;;;;;1.40;100.00;100926.66;106543;1253;74757;-87
2024/03/14 04:00:41;;;;;;;14.40;9.80;;;;;;;1.44;100.00;100922.73;106392;1257;68774;-87
2024/03/14 04:03:14;;;;;;;14.90;9.00;;;;;;;1.45;100.00;100923.52;106360;1253;72620;-82
2024/03/14 04:05:55;;;;;;;;;;;;;;;1.43;100.00;100922.21;107805;1251;61853;-85
2024/03/14 04:08:23;;;;;;;14.30;9.00;;;;;;;1.39;100.00;100921.44;106450;1253;61221;-85
2024/03/14 04:10:57;;;;;;;12.30;8.30;;;;;;;1.37;100.00;100919.73;106532;1251;74693;-79
2024/03/14 04:13:31;;;;;;;12.10;8.30;;;;;;;1.38;100.00;100917.00;106718;1251;66624;-82
2024/03/14 04:16:12;;;;;;;13.70;8.90;;;;;;;1.38;100.00;100914.56;106330;1256;71379;-87
2024/03/14 04:18:52;;;;;;;14.10;9.10;;;;;;;1.36;100.00;100914.85;106403;1256;61324;-87
2024/03/14 04:21:27;;;;;;;14.70;9.50;;;;;;;1.36;100.00;100915.64;106685;1250;61171;-86
2024/03/14 04:24:01;;;;;;;15.90;9.70;;;;;;;1.36;100.00;100916.84;106430;1253;74712;-87
2024/03/14 04:26:41;;;;;;;13.40;8.10;;;;;;;1.34;100.00;100918.63;106521;1256;67603;-85
2024/03/14 04:29:21;;;;;;;13.20;8.40;;;;;;;1.34;100.00;100925.59;106374;1256;71383;-86
2024/03/14 04:31:56;;;;;;;11.60;8.00;;;;;;;1.36;100.00;100928.02;107587;1256;61369;-82
2024/03/14 04:34:30;;;;;;;14.50;9.20;;;;;;;1.36;100.00;100931.27;107076;1253;61385;-86
2024/03/14 04:37:12;;;;;;;13.90;8.90;;;;;;;1.38;100.00;100934.41;106611;1256;74671;-85
2024/03/14 04:39:51;;;;;;;14.80;8.80;;;;;;;1.43;100.00;100934.58;106595;1251;68681;-87
2024/03/14 04:42:26;;;;;;;13.10;8.40;;;;;;;1.48;100.00;100942.37;106674;1250;72621;-85
2024/03/14 04:45:00;;;;;;;13.80;8.30;;;;;;;1.47;100.00;100941.74;106677;1250;61285;-84
2024/03/14 04:47:40;;;;;;;15.30;8.90;;;;;;;1.50;100.00;100941.70;106761;1250;61247;-86
2024/03/14 04:50:20;;;;;;;14.40;8.40;;;;;;;1.49;100.00;100946.63;106485;1253;73653;-82
2024/03/14 04:52:54;;;;;;;16.30;8.60;;;;;;;1.51;100.00;100951.48;106706;1256;68871;-87
2024/03/14 04:55:29;;;;;;;14.00;8.80;;;;;;;1.58;100.00;100954.09;106527;1251;72685;-87
2024/03/14 04:58:09;;;;;;;13.30;8.60;;;;;;;1.67;100.00;100959.35;106435;1250;61359;-84
2024/03/14 05:00:50;;;;;;;12.50;8.10;;;;;;;1.64;100.00;100955.46;106568;1253;61278;-86
2024/03/14 05:03:33;;;;;;;15.00;8.70;;;;;;;1.58;100.00;100958.11;106527;1250;73895;-86
2024/03/14 05:06:03;;;;;;;13.90;8.50;;;;;;;1.59;100.00;100956.25;106240;1250;67106;-88
2024/03/14 05:08:43;;;;;;;16.10;8.90;;;;;;;1.64;100.00;100957.37;106633;1253;71058;-81
2024/03/14 05:11:23;;;;;;;13.80;9.10;;;;;;;1.62;100.00;100954.38;106418;1253;61327;-87
2024/03/14 05:14:06;;;;;;;14.90;8.60;;;;;;;1.60;100.00;100955.42;106457;1256;61235;-87
2024/03/14 05:16:34;;;;;;;;;;;;;;;1.61;100.00;100953.05;106465;1253;73450;-87
2024/03/14 05:19:20;;;;;;;17.50;10.00;;;;;;;1.62;100.00;100953.84;106693;1253;68897;-83
2024/03/14 05:22:01;;;;;;;13.70;8.80;;;;;;;1.64;100.00;100955.98;106408;1252;71704;-82
2024/03/14 05:24:41;;;;;;;15.70;9.50;;;;;;;1.62;100.00;100957.12;106514;1253;61443;-82
2024/03/14 05:27:15;;;;;;;16.70;10.00;;;;;;;1.67;100.00;100958.81;106665;1253;61280;-87
2024/03/14 05:29:50;;;;;;;15.30;8.80;;;;;;;1.67;100.00;100962.21;106536;1253;74635;-86
2024/03/14 05:32:32;;;;;;;18.20;9.80;;;;;;;1.60;100.00;100964.24;106454;1256;67419;-82
2024/03/14 05:35:12;;;;;;;16.20;9.60;;;;;;;1.63;100.00;100962.41;106531;1256;72695;-81
2024/03/14 05:37:46;;;;;;;15.80;9.60;;;;;;;1.64;100.00;100962.79;106412;1253;61710;-85
2024/03/14 05:40:20;;;;;;;15.00;9.60;;;;;;;1.67;100.00;100966.43;106455;1252;61390;-86
2024/03/14 05:42:54;;;;;;;19.00;9.90;;;;;;;1.67;100.00;100967.88;106516;1256;74586;-87
2024/03/14 05:45:35;;;;;;;18.80;11.70;;;;;;;1.69;100.00;100970.21;106512;1252;68885;-88
2024/03/14 05:48:13;;;;;;;19.80;10.60;;;;;;;1.70;100.00;100969.09;106599;1257;71433;-82
2024/03/14 05:50:47;;;;;;;18.40;10.70;;;;;;;1.74;100.00;100974.02;106572;1256;61262;-82
2024/03/14 05:53:28;;;;;;;17.30;10.70;;;;;;;1.77;100.00;100976.71;106777;1250;61127;-86
2024/03/14 05:56:08;;;;;;;19.20;12.40;;;;;;;1.76;100.00;100978.70;106518;1251;74727;-88
2024/03/14 05:58:45;;;;;;;17.40;10.30;;;;;;;1.76;100.00;100980.24;106516;1253;67183;-85
2024/03/14 06:01:25;;;;;;;18.20;11.90;;;;;;;1.78;100.00;100978.95;106415;1253;74252;-81
2024/03/14 06:04:07;;;;;;;14.70;9.20;;;;;;;1.78;100.00;100983.05;106261;1250;61210;-82
2024/03/14 06:06:47;;;;;;;18.70;11.30;;;;;;;1.77;100.00;100984.05;106691;1253;61226;-81
2024/03/14 06:09:39;;;;;;;18.60;11.90;;;;;;;1.82;100.00;100985.42;106628;1251;76849;-86
2024/03/14 06:12:19;;;;;;;18.40;11.60;;;;;;;1.78;100.00;100987.95;106668;1257;71352;-86
2024/03/14 06:14:59;;;;;;;19.00;11.00;;;;;;;1.79;100.00;100987.95;106440;1250;71636;-87
2024/03/14 06:17:40;;;;;;;21.20;12.40;;;;;;;1.75;100.00;100987.70;106663;1252;61347;-81
2024/03/14 06:20:22;;;;;;;18.60;11.50;;;;;;;1.76;100.00;100985.63;106636;1256;61128;-82
2024/03/14 06:23:02;;;;;;;19.50;11.50;;;;;;;1.77;100.00;100988.65;106480;1251;74598;-87
2024/03/14 06:25:44;;;;;;;19.60;11.80;;;;;;;1.77;100.00;100988.00;106433;1256;67600;-82
2024/03/14 06:28:24;;;;;;;20.70;12.30;;;;;;;1.76;100.00;100989.40;106572;1256;74766;-81
2024/03/14 06:31:07;;;;;;;20.80;13.30;;;;;;;1.75;100.00;100991.27;106485;1259;61966;-82
2024/03/14 06:33:50;;;;;;;18.00;11.70;;;;;;;1.69;100.00;100987.58;106585;1251;62345;-82
2024/03/14 06:36:31;;;;;;;19.40;12.20;;;;;;;1.71;100.00;100988.78;106434;1250;75393;-81
2024/03/14 06:39:11;;;;;;;22.10;12.70;;;;;;;1.78;100.00;100992.55;106843;1253;70646;-82
2024/03/14 06:41:52;;;;;;;19.60;12.60;;;;;;;1.72;100.00;100991.31;106429;1251;73551;-81
2024/03/14 06:44:32;;;;;;;20.60;11.90;;;;;;;1.78;100.00;100995.98;106605;1253;61322;-82
2024/03/14 06:47:12;;;;;;;20.80;12.50;;;;;;;1.83;100.00;100992.66;106513;1256;61244;-82
2024/03/14 06:49:52;;;;;;;17.00;10.50;;;;;;;1.79;100.00;100990.88;106257;1253;75560;-81
2024/03/14 06:52:34;;;;;;;17.50;11.20;;;;;;;1.79;100.00;100990.84;106472;1257;67088;-80
2024/03/14 06:55:15;;;;;;;17.00;11.10;;;;;;;1.78;100.00;100996.33;106698;1256;72623;-80
2024/03/14 06:57:55;;;;;;;20.20;11.70;;;;;;;1.81;100.00;100991.38;106422;1254;63396;-80
2024/03/14 07:00:35;;;;;;;18.80;10.60;;;;;;;1.82;100.00;100993.42;106780;1253;61988;-80
2024/03/14 07:03:16;;;;;;;15.90;10.00;;;;;;;1.88;100.00;100995.27;106508;1257;74557;-80
2024/03/14 07:05:57;;;;;;;20.70;10.00;;;;;;;1.98;100.00;100990.16;106513;1255;70343;-81
2024/03/14 07:08:38;;;;;;;18.30;11.30;;;;;;;2.01;100.00;100993.27;106697;1254;73620;-84
2024/03/14 07:11:18;;;;;;;16.10;10.40;;;;;;;2.05;100.00;100991.11;106816;1256;62019;-84
2024/03/14 07:14:00;;;;;;;15.80;10.20;;;;;;;2.06;100.00;100993.93;106411;1251;61284;-85
2024/03/14 07:16:40;;;;;;;17.80;10.60;;;;;;;2.11;100.00;100995.66;106799;1250;75617;-85
2024/03/14 07:19:23;;;;;;;17.60;10.80;;;;;;;2.14;100.00;100995.41;106459;1251;71106;-85
2024/03/14 07:22:03;;;;;;;18.40;10.40;;;;;;;2.14;100.00;100993.83;106467;1253;75001;-85
2024/03/14 07:24:38;;;;;;;16.80;9.60;;;;;;;2.13;100.00;100987.95;106469;1257;61776;-84
2024/03/14 07:27:12;;;;;;;17.90;9.70;;;;;;;2.19;100.00;100993.77;106581;1256;61292;-83
2024/03/14 07:29:52;;;;;;;21.90;10.80;;;;;;;2.22;100.00;100992.08;106643;1256;76347;-84
2024/03/14 07:32:35;;;;;;;20.20;11.10;;;;;;;2.27;100.00;100996.92;106515;1257;69974;-83
2024/03/14 07:35:13;;;;;;;19.00;10.50;;;;;;;2.41;100.00;100997.76;106532;1257;74252;-85
2024/03/14 07:37:49;;;;;;;17.80;9.90;;;;;;;2.39;100.00;101004.12;106577;1251;62223;-84
2024/03/14 07:40:32;;;;;;;17.40;10.70;;;;;;;2.42;100.00;101003.02;106412;1257;62071;-84
2024/03/14 07:43:13;;;;;;;20.80;10.30;;;;;;;2.56;100.00;101006.04;106704;1257;75542;-84
2024/03/14 07:45:47;;;;;;;14.60;8.70;;;;;;;2.53;100.00;101008.05;107534;1256;70454;-85
2024/03/14 07:48:27;;;;;;;15.40;10.20;;;;;;;2.52;100.00;101005.73;106482;1254;74879;-84
2024/03/14 07:51:10;;;;;;;18.90;10.70;;;;;;;2.57;100.00;101009.20;106590;1257;61719;-84
2024/03/14 07:53:51;;;;;;;17.20;9.30;;;;;;;2.60;100.00;101006.23;106615;1252;61924;-85
2024/03/14 07:56:32;;;;;;;16.10;9.10;;;;;;;2.62;100.00;100999.13;106565;1253;77012;-85
2024/03/14 07:59:06;;;;;;;14.40;9.50;;;;;;;2.61;100.00;100998.98;106517;1259;70107;-84
2024/03/14 08:01:46;;;;;;;16.80;9.40;;;;;;;2.69;100.00;100997.00;107104;1253;73701;-85
2024/03/14 08:04:26;;;;;;;17.30;9.30;;;;;;;2.83;100.00;100998.27;106437;1255;62261;-84
2024/03/14 08:07:10;;;;;;;17.60;10.20;;;;;;;2.89;100.00;101004.42;106314;1250;61138;-84
2024/03/14 08:09:44;;;;;;;14.90;8.60;;;;;;;2.97;100.00;100998.94;106445;1253;76899;-84
2024/03/14 08:12:24;;;;;;;16.70;9.00;;;;;;;3.12;100.00;101001.47;106473;1257;71644;-84
2024/03/14 08:15:30;;;;;;;14.00;8.70;;;;;;;2.99;100.00;101003.48;106820;1255;72968;-84
2024/03/14 08:18:05;;;;;;;14.80;9.40;;;;;;;2.89;100.00;101001.67;106728;1256;61350;-84
2024/03/14 08:20:39;;;;;;;15.80;8.70;;;;;;;2.92;100.00;101004.86;106538;1259;61249;-84
2024/03/14 08:23:20;;;;;;;17.40;8.90;;;;;;;2.91;100.00;101008.02;106684;1256;77133;-84
2024/03/14 08:26:01;;;;;;;15.40;9.10;;;;;;;2.93;100.00;101007.72;106450;1259;71069;-83
2024/03/14 08:28:38;;;;;;;19.10;9.40;;;;;;;2.97;100.00;101004.50;107053;1256;72402;-84
2024/03/14 08:31:15;;;;;;;16.60;9.40;;;;;;;3.14;100.00;101008.82;106457;1251;61600;-84
2024/03/14 08:33:56;;;;;;;14.70;8.80;;;;;;;3.32;100.00;101011.08;106758;1258;61911;-83
2024/03/14 08:36:36;;;;;;;15.10;9.40;;;;;;;3.51;100.00;101015.52;106441;1259;77369;-85
2024/03/14 08:39:17;;;;;;;16.20;9.10;;;;;;;3.54;100.00;101016.45;106325;1258;68630;-84
2024/03/14 08:41:47;;;;;;;15.60;8.60;;;;;;;3.69;100.00;101015.17;106543;1256;74073;-84
2024/03/14 08:44:30;;;;;;;14.90;9.00;;;;;;;3.70;100.00;101013.42;106790;1254;61353;-84
2024/03/14 08:47:10;;;;;;;14.00;8.50;;;;;;;3.76;100.00;101008.71;106616;1251;61358;-84
2024/03/14 08:49:50;;;;;;;15.50;9.10;;;;;;;3.92;100.00;101008.01;106578;1254;75631;-84
2024/03/14 08:52:21;;;;;;;17.00;9.60;;;;;;;3.90;100.00;101011.14;106620;1256;70446;-84
2024/03/14 08:55:05;;;;;;;11.60;8.20;;;;;;;4.02;100.00;101013.20;106397;1258;73634;-84
2024/03/14 08:57:43;;;;;;;12.60;8.10;;;;;;;4.02;100.00;101019.27;106879;1255;61308;-82
2024/03/14 09:00:23;;;;;;;13.40;7.90;;;;;;;3.85;100.00;101021.27;106576;1256;61294;-82
2024/03/14 09:02:52;;;;;;;14.60;8.20;;;;;;;3.82;100.00;101017.86;106490;1256;76571;-83
2024/03/14 09:05:27;;;;;;;15.90;8.80;;;;;;;3.84;100.00;101021.95;106455;1257;69531;-84
2024/03/14 09:08:01;;;;;;;12.10;7.70;;;;;;;3.81;100.00;101020.70;106596;1251;73463;-83
2024/03/14 09:10:36;;;;;;;13.70;8.90;;;;;;;3.85;100.00;101019.75;106445;1258;61285;-83
2024/03/14 09:13:06;;;;;;;16.00;8.80;;;;;;;3.93;100.00;101021.67;106880;1251;61977;-83
2024/03/14 09:15:41;;;;;;;15.20;8.90;;;;;;;4.04;100.00;101021.98;106445;1257;76560;-85
2024/03/14 09:18:17;;;;;;;16.10;8.70;;;;;;;4.18;100.00;101019.08;106522;1253;70521;-85
2024/03/14 09:20:55;;;;;;;13.30;8.30;;;;;;;4.40;100.00;101015.27;106493;1257;71157;-84
2024/03/14 09:23:29;;;;;;;14.20;8.30;;;;;;;4.51;100.00;101018.33;106471;1254;61337;-85
2024/03/14 09:26:03;;;;;;;14.80;8.40;;;;;;;4.59;100.00;101022.22;106328;1256;61307;-84
2024/03/14 09:28:38;;;;;;;16.50;9.20;;;;;;;4.58;100.00;101017.66;107660;1251;74510;-85
2024/03/14 09:31:12;;;;;;;13.50;8.60;;;;;;;4.66;100.00;101013.09;106438;1256;69772;-85
2024/03/14 09:33:40;;;;;;;12.90;8.00;;;;;;;4.73;100.00;101016.98;106585;1257;74924;-84
2024/03/14 09:36:14;;;;;;;13.80;8.30;;;;;;;4.72;100.00;101014.08;106612;1257;61293;-84
2024/03/14 09:38:48;;;;;;;14.20;8.70;;;;;;;4.79;100.00;101019.49;106550;1251;62382;-81
2024/03/14 09:41:22;;;;;;;13.20;8.00;;;;;;;4.85;100.00;101023.75;106466;1251;76999;-86
2024/03/14 09:43:51;;;;;;;15.60;8.80;;;;;;;4.93;100.00;101021.92;106404;1261;70088;-81
2024/03/14 09:46:26;;;;;;;15.10;9.30;;;;;;;5.02;100.00;101019.45;106645;1257;74193;-85
2024/03/14 09:49:01;;;;;;;16.40;8.60;;;;;;;5.14;100.00;101019.32;106445;1254;63313;-81
2024/03/14 09:51:30;;;;;;;14.60;9.10;;;;;;;5.20;100.00;101018.86;106387;1258;61340;-81
2024/03/14 09:53:58;;;;;;;13.80;8.90;;;;;;;5.26;100.00;101019.58;106233;1267;77099;-81
2024/03/14 09:56:32;;;;;;;15.00;8.70;;;;;;;5.43;100.00;101024.36;106364;1251;70615;-81
2024/03/14 09:59:07;;;;;;;13.20;8.40;;;;;;;5.65;100.00;101023.67;107398;1251;75013;-81
2024/03/14 10:01:40;;;;;;;12.40;7.80;;;;;;;5.79;100.00;101021.75;106793;1258;61256;-80
2024/03/14 10:04:10;;;;;;;17.10;9.50;;;;;;;5.81;100.00;101023.59;106786;1251;62508;-80
2024/03/14 10:06:46;;;;;;;14.20;8.30;;;;;;;5.67;100.00;101023.73;106973;1251;75776;-85
2024/03/14 10:09:22;;;;;;;20.00;8.90;;;;;;;5.55;100.00;101020.91;106700;1251;71264;-85
2024/03/14 10:11:58;;;;;;;14.60;10.00;;;;;;;5.45;100.00;101023.27;106514;1263;74192;-83
2024/03/14 10:14:32;;;;;;;17.90;9.50;;;;;;;5.41;100.00;101028.20;106531;1257;61529;-81
2024/03/14 10:17:13;;;;;;;16.00;9.00;;;;;;;5.39;100.00;101025.98;106640;1251;62502;-81
2024/03/14 10:19:47;;;;;;;14.80;8.50;;;;;;;5.34;100.00;101023.97;107981;1254;74703;-81
2024/03/14 10:22:15;;;;;;;18.90;10.20;;;;;;;5.25;100.00;101025.27;106507;1255;69758;-81
2024/03/14 10:24:49;;;;;;;16.70;9.50;;;;;;;5.27;100.00;101026.25;106547;1254;73144;-85
2024/03/14 10:27:23;;;;;;;17.10;10.20;;;;;;;5.20;100.00;101021.13;107093;1255;61394;-81
2024/03/14 10:29:57;;;;;;;18.60;12.30;;;;;;;5.23;100.00;101017.28;106433;1257;61085;-85
2024/03/14 10:32:25;;;;;;;19.00;11.70;;;;;;;5.34;100.00;101013.39;106737;1257;76487;-81
2024/03/14 10:34:59;;;;;;;17.00;10.90;;;;;;;5.39;100.00;101016.11;106709;1260;69854;-82
2024/03/14 10:37:34;;;;;;;19.70;11.00;;;;;;;5.40;100.00;101016.92;107914;1254;74593;-85
2024/03/14 10:40:19;;;;;;;16.70;11.30;;;;;;;5.50;100.00;101018.47;106435;1259;61407;-85
2024/03/14 10:42:49;;;;;;;17.40;10.40;;;;;;;5.58;100.00;101021.28;106907;1251;61119;-85
2024/03/14 10:45:24;;;;;;;15.60;10.70;;;;;;;5.58;100.00;101021.72;107764;1251;76735;-85
2024/03/14 10:47:58;;;;;;;19.10;11.30;;;;;;;5.62;100.00;101021.64;106852;1257;70317;-85
2024/03/14 10:50:33;;;;;;;19.20;10.90;;;;;;;5.64;100.00;101010.89;106428;1254;73785;-84
2024/03/14 10:53:02;;;;;;;16.80;10.10;;;;;;;5.58;100.00;101013.73;106571;1257;61321;-81
2024/03/14 10:55:39;;;;;;;17.90;11.00;;;;;;;5.57;100.00;101009.98;106339;1251;62081;-81
2024/03/14 10:58:13;;;;;;;18.30;10.90;;;;;;;5.66;100.00;100998.68;106518;1251;75227;-85
2024/03/14 11:00:48;;;;;;;14.70;10.50;;;;;;;5.70;100.00;100997.87;106609;1251;71335;-81
2024/03/14 11:03:19;;;;;;;16.90;9.90;;;;;;;5.71;100.00;100998.92;106464;1257;73839;-81
2024/03/14 11:05:52;;;;;;;17.20;10.30;;;;;;;5.73;100.00;100996.05;106926;1254;61922;-81
2024/03/14 11:08:26;;;;;;;14.20;9.50;;;;;;;5.77;100.00;100995.91;106936;1251;61080;-85
2024/03/14 11:11:02;;;;;;;14.90;10.20;;;;;;;5.86;100.00;100988.00;107149;1251;75245;-85
2024/03/14 11:13:33;;;;;;;21.40;11.00;;;;;;;5.94;100.00;100984.08;106631;1254;69906;-81
2024/03/14 11:16:07;;;;;;;20.60;11.90;;;;;;;6.01;100.00;100984.64;106894;1251;74692;-86
2024/03/14 11:18:42;;;;;;;16.80;9.80;;;;;;;6.11;100.00;100987.20;106467;1251;61375;-85
2024/03/14 11:21:16;;;;;;;21.00;12.10;;;;;;;6.13;100.00;100985.26;106448;1251;61919;-81
2024/03/14 11:23:45;;;;;;;19.00;10.70;;;;;;;6.17;100.00;100987.29;106511;1253;76664;-81
2024/03/14 11:26:19;;;;;;;18.20;10.80;;;;;;;6.24;100.00;100991.14;106441;1252;68729;-86
2024/03/14 11:29:02;;;;;;;17.20;10.60;;;;;;;6.29;100.00;100991.73;106486;1254;74687;-81
2024/03/14 11:31:46;;;;;;;18.80;11.10;;;;;;;6.30;100.00;100985.98;106562;1251;61224;-85
2024/03/14 11:34:17;;;;;;;18.20;10.10;;;;;;;6.25;100.00;100986.49;106297;1259;61239;-83
2024/03/14 11:36:48;;;;;;;17.90;10.40;;;;;;;6.23;100.00;100990.02;106549;1251;74968;-86
2024/03/14 11:39:26;;;;;;;15.00;9.60;;;;;;;6.24;100.00;100987.98;106550;1251;69163;-85
2024/03/14 11:42:10;;;;;;;15.70;10.20;;;;;;;6.27;100.00;100986.59;106628;1251;74652;-82
2024/03/14 11:44:46;;;;;;;15.80;10.20;;;;;;;6.33;100.00;100988.63;106492;1256;62870;-80
2024/03/14 15:48:55;;;;;;;29.30;18.30;;;;;;;6.96;100.00;100968.01;106436;1256;75813;-80